Terminal Aerodrome Forecast
Issued by NWS

Home | Current Version | Previous Version | Text Only | Print | Product List | Glossary On
Versions: 1 2 3 4 5 6 7 8 9 10 11 12 13 14 15 16 17 18 19 20 21 22 23 24 25 26
671
FTUS46 KMFR 261147 CCA
TAFOTH
TAF COR
KOTH 261147Z 2612/2712 VRB03KT 1/2SM FG VV002
      TEMPO 2612/2613 P6SM NSW SCT002
     FM261600 VRB03KT 6SM BR SCT003
     FM261700 33006KT P6SM SKC
     FM261900 35017G25KT P6SM FEW200
     FM270400 26010KT P6SM SKC=

USA.gov is the U.S. government's official web portal to all federal, state and local government web resources and services.